sensor_id;sensor_type;location;lat;lon;timestamp;P1;durP1;ratioP1;P2;durP2;ratioP2
41293;SDS011;27037;52.010;4.446;2024-03-02T18:46:27;8.82;;;1.98;;
41293;SDS011;27037;52.010;4.446;2024-03-02T18:48:53;5.00;;;1.70;;
41293;SDS011;27037;52.010;4.446;2024-03-02T18:51:22;3.53;;;2.03;;
41293;SDS011;27037;52.010;4.446;2024-03-02T18:53:47;3.58;;;1.92;;
41293;SDS011;27037;52.010;4.446;2024-03-02T18:56:13;3.33;;;1.80;;
41293;SDS011;27037;52.010;4.446;2024-03-02T18:58:39;4.60;;;2.00;;
41293;SDS011;27037;52.010;4.446;2024-03-02T19:01:04;3.25;;;1.70;;
41293;SDS011;27037;52.010;4.446;2024-03-02T19:03:33;3.83;;;1.58;;
41293;SDS011;27037;52.010;4.446;2024-03-02T19:05:59;4.90;;;1.90;;
41293;SDS011;27037;52.010;4.446;2024-03-02T19:08:26;3.13;;;1.70;;
41293;SDS011;27037;52.010;4.446;2024-03-02T19:10:52;4.03;;;1.63;;
41293;SDS011;27037;52.010;4.446;2024-03-02T19:13:18;2.90;;;1.90;;
41293;SDS011;27037;52.010;4.446;2024-03-02T19:15:44;3.35;;;1.80;;
41293;SDS011;27037;52.010;4.446;2024-03-02T19:18:10;4.13;;;1.80;;
41293;SDS011;27037;52.010;4.446;2024-03-02T19:20:35;5.47;;;1.70;;
41293;SDS011;27037;52.010;4.446;2024-03-02T19:23:01;6.07;;;1.83;;
41293;SDS011;27037;52.010;4.446;2024-03-02T19:25:26;2.90;;;1.90;;
41293;SDS011;27037;52.010;4.446;2024-03-02T19:27:52;2.85;;;1.50;;
41293;SDS011;27037;52.010;4.446;2024-03-02T19:30:18;3.50;;;1.90;;
41293;SDS011;27037;52.010;4.446;2024-03-02T19:32:43;2.72;;;1.80;;
41293;SDS011;27037;52.010;4.446;2024-03-02T19:35:09;3.42;;;1.98;;
41293;SDS011;27037;52.010;4.446;2024-03-02T19:37:38;2.97;;;1.60;;
41293;SDS011;27037;52.010;4.446;2024-03-02T19:40:04;4.55;;;2.00;;
41293;SDS011;27037;52.010;4.446;2024-03-02T19:42:31;3.95;;;2.40;;
41293;SDS011;27037;52.010;4.446;2024-03-02T19:44:57;5.47;;;2.03;;
41293;SDS011;27037;52.010;4.446;2024-03-02T19:47:22;4.55;;;2.33;;
41293;SDS011;27037;52.010;4.446;2024-03-02T19:49:48;4.47;;;2.30;;
41293;SDS011;27037;52.010;4.446;2024-03-02T19:52:14;2.22;;;2.03;;
41293;SDS011;27037;52.010;4.446;2024-03-02T19:54:39;5.80;;;2.40;;
41293;SDS011;27037;52.010;4.446;2024-03-02T19:57:05;3.92;;;2.28;;
41293;SDS011;27037;52.010;4.446;2024-03-02T19:59:31;6.05;;;2.30;;
41293;SDS011;27037;52.010;4.446;2024-03-02T20:01:57;4.72;;;2.50;;
41293;SDS011;27037;52.010;4.446;2024-03-02T20:04:22;5.18;;;3.03;;
41293;SDS011;27037;52.010;4.446;2024-03-02T20:06:51;5.38;;;2.97;;
41293;SDS011;27037;52.010;4.446;2024-03-02T20:09:18;5.45;;;2.63;;
41293;SDS011;27037;52.010;4.446;2024-03-02T20:11:44;5.20;;;2.70;;
41293;SDS011;27037;52.010;4.446;2024-03-02T20:14:09;4.55;;;2.88;;
41293;SDS011;27037;52.010;4.446;2024-03-02T20:16:35;5.03;;;2.50;;
41293;SDS011;27037;52.010;4.446;2024-03-02T20:19:02;9.15;;;2.80;;
41293;SDS011;27037;52.010;4.446;2024-03-02T20:21:28;4.93;;;2.60;;
41293;SDS011;27037;52.010;4.446;2024-03-02T20:23:54;5.43;;;2.60;;
41293;SDS011;27037;52.010;4.446;2024-03-02T20:26:19;4.80;;;2.58;;
41293;SDS011;27037;52.010;4.446;2024-03-02T20:28:45;3.50;;;2.60;;
41293;SDS011;27037;52.010;4.446;2024-03-02T20:31:11;4.40;;;3.00;;
41293;SDS011;27037;52.010;4.446;2024-03-02T20:33:39;5.15;;;3.30;;
41293;SDS011;27037;52.010;4.446;2024-03-02T20:36:05;5.60;;;3.45;;
41293;SDS011;27037;52.010;4.446;2024-03-02T20:38:31;6.15;;;3.20;;
41293;SDS011;27037;52.010;4.446;2024-03-02T20:40:56;5.30;;;2.63;;
41293;SDS011;27037;52.010;4.446;2024-03-02T20:43:22;4.82;;;3.20;;
41293;SDS011;27037;52.010;4.446;2024-03-02T20:45:48;4.38;;;2.80;;
41293;SDS011;27037;52.010;4.446;2024-03-02T20:48:13;6.35;;;3.10;;
41293;SDS011;27037;52.010;4.446;2024-03-02T20:50:40;4.13;;;2.90;;
41293;SDS011;27037;52.010;4.446;2024-03-02T20:53:05;5.45;;;2.80;;
41293;SDS011;27037;52.010;4.446;2024-03-02T20:55:35;3.65;;;2.78;;
41293;SDS011;27037;52.010;4.446;2024-03-02T20:58:02;5.07;;;2.85;;
41293;SDS011;27037;52.010;4.446;2024-03-02T21:00:28;4.43;;;2.90;;
41293;SDS011;27037;52.010;4.446;2024-03-02T21:02:54;3.42;;;2.70;;
41293;SDS011;27037;52.010;4.446;2024-03-02T21:05:20;5.07;;;2.95;;
41293;SDS011;27037;52.010;4.446;2024-03-02T21:07:48;5.80;;;2.80;;
41293;SDS011;27037;52.010;4.446;2024-03-02T21:10:14;6.35;;;2.47;;
41293;SDS011;27037;52.010;4.446;2024-03-02T21:12:40;3.72;;;2.80;;
41293;SDS011;27037;52.010;4.446;2024-03-02T21:15:06;4.78;;;2.67;;
41293;SDS011;27037;52.010;4.446;2024-03-02T21:17:32;3.70;;;2.60;;
41293;SDS011;27037;52.010;4.446;2024-03-02T21:19:57;5.78;;;2.53;;
41293;SDS011;27037;52.010;4.446;2024-03-02T21:22:23;3.58;;;2.70;;
41293;SDS011;27037;52.010;4.446;2024-03-02T21:24:49;3.97;;;2.50;;
41293;SDS011;27037;52.010;4.446;2024-03-02T21:27:14;4.57;;;2.80;;
41293;SDS011;27037;52.010;4.446;2024-03-02T21:29:40;3.58;;;2.50;;
41293;SDS011;27037;52.010;4.446;2024-03-02T21:32:06;5.05;;;3.00;;
41293;SDS011;27037;52.010;4.446;2024-03-02T21:34:31;4.72;;;2.90;;
41293;SDS011;27037;52.010;4.446;2024-03-02T21:36:57;4.05;;;2.67;;
41293;SDS011;27037;52.010;4.446;2024-03-02T21:39:23;3.05;;;2.63;;
41293;SDS011;27037;52.010;4.446;2024-03-02T21:41:49;3.00;;;2.50;;
41293;SDS011;27037;52.010;4.446;2024-03-02T21:44:16;5.28;;;2.53;;
41293;SDS011;27037;52.010;4.446;2024-03-02T21:46:41;4.50;;;2.53;;
41293;SDS011;27037;52.010;4.446;2024-03-02T21:49:07;3.55;;;2.60;;
41293;SDS011;27037;52.010;4.446;2024-03-02T21:51:32;4.22;;;2.70;;
41293;SDS011;27037;52.010;4.446;2024-03-02T21:53:58;3.90;;;2.30;;
41293;SDS011;27037;52.010;4.446;2024-03-02T21:56:24;3.30;;;2.30;;
41293;SDS011;27037;52.010;4.446;2024-03-02T21:58:49;5.32;;;2.58;;
41293;SDS011;27037;52.010;4.446;2024-03-02T22:01:16;3.35;;;2.22;;
41293;SDS011;27037;52.010;4.446;2024-03-02T22:03:42;3.72;;;2.40;;
41293;SDS011;27037;52.010;4.446;2024-03-02T22:06:11;6.00;;;2.70;;
41293;SDS011;27037;52.010;4.446;2024-03-02T22:08:40;2.70;;;2.00;;
41293;SDS011;27037;52.010;4.446;2024-03-02T22:11:05;3.30;;;2.10;;
41293;SDS011;27037;52.010;4.446;2024-03-02T22:13:31;3.35;;;2.42;;
41293;SDS011;27037;52.010;4.446;2024-03-02T22:15:57;2.92;;;2.40;;
41293;SDS011;27037;52.010;4.446;2024-03-02T22:18:22;3.53;;;2.35;;
41293;SDS011;27037;52.010;4.446;2024-03-02T22:20:48;7.35;;;3.83;;
41293;SDS011;27037;52.010;4.446;2024-03-02T22:23:14;3.05;;;2.30;;
41293;SDS011;27037;52.010;4.446;2024-03-02T22:25:39;4.05;;;2.25;;
41293;SDS011;27037;52.010;4.446;2024-03-02T22:28:06;2.90;;;2.20;;
41293;SDS011;27037;52.010;4.446;2024-03-02T22:30:32;2.83;;;2.22;;
41293;SDS011;27037;52.010;4.446;2024-03-02T22:32:57;4.20;;;2.50;;
41293;SDS011;27037;52.010;4.446;2024-03-02T22:35:23;3.55;;;2.30;;
41293;SDS011;27037;52.010;4.446;2024-03-02T22:37:49;2.47;;;2.13;;
41293;SDS011;27037;52.010;4.446;2024-03-02T22:40:15;2.75;;;2.28;;
41293;SDS011;27037;52.010;4.446;2024-03-02T22:42:41;4.43;;;2.08;;
41293;SDS011;27037;52.010;4.446;2024-03-02T22:45:06;2.92;;;2.20;;
41293;SDS011;27037;52.010;4.446;2024-03-02T22:47:32;5.07;;;2.17;;
41293;SDS011;27037;52.010;4.446;2024-03-02T22:49:58;2.33;;;2.13;;
41293;SDS011;27037;52.010;4.446;2024-03-02T22:52:24;2.95;;;2.22;;
41293;SDS011;27037;52.010;4.446;2024-03-02T22:54:50;2.38;;;2.00;;
41293;SDS011;27037;52.010;4.446;2024-03-02T22:57:15;3.88;;;2.10;;
41293;SDS011;27037;52.010;4.446;2024-03-02T22:59:47;3.00;;;1.98;;
41293;SDS011;27037;52.010;4.446;2024-03-02T23:02:14;2.67;;;2.10;;
41293;SDS011;27037;52.010;4.446;2024-03-02T23:04:41;3.90;;;2.35;;
41293;SDS011;27037;52.010;4.446;2024-03-02T23:07:08;4.10;;;1.90;;
41293;SDS011;27037;52.010;4.446;2024-03-02T23:09:33;3.15;;;2.17;;
41293;SDS011;27037;52.010;4.446;2024-03-02T23:11:59;1.52;;;1.38;;
41293;SDS011;27037;52.010;4.446;2024-03-02T23:14:24;2.05;;;1.88;;
41293;SDS011;27037;52.010;4.446;2024-03-02T23:16:50;3.15;;;2.08;;
41293;SDS011;27037;52.010;4.446;2024-03-02T23:19:16;2.55;;;1.90;;
41293;SDS011;27037;52.010;4.446;2024-03-02T23:21:50;2.67;;;1.80;;
41293;SDS011;27037;52.010;4.446;2024-03-02T23:24:16;3.00;;;1.88;;
41293;SDS011;27037;52.010;4.446;2024-03-02T23:26:42;2.67;;;2.00;;
41293;SDS011;27037;52.010;4.446;2024-03-02T23:29:08;2.15;;;1.70;;
41293;SDS011;27037;52.010;4.446;2024-03-02T23:31:34;2.13;;;1.70;;
41293;SDS011;27037;52.010;4.446;2024-03-02T23:34:00;2.42;;;1.60;;
41293;SDS011;27037;52.010;4.446;2024-03-02T23:36:29;2.40;;;1.83;;
41293;SDS011;27037;52.010;4.446;2024-03-02T23:38:55;2.50;;;1.80;;
41293;SDS011;27037;52.010;4.446;2024-03-02T23:41:21;2.65;;;1.80;;
41293;SDS011;27037;52.010;4.446;2024-03-02T23:43:47;4.13;;;2.00;;
41293;SDS011;27037;52.010;4.446;2024-03-02T23:46:12;2.45;;;1.70;;
41293;SDS011;27037;52.010;4.446;2024-03-02T23:48:38;2.90;;;1.88;;
41293;SDS011;27037;52.010;4.446;2024-03-02T23:51:04;1.80;;;1.40;;
41293;SDS011;27037;52.010;4.446;2024-03-02T23:53:30;2.28;;;1.77;;
41293;SDS011;27037;52.010;4.446;2024-03-02T23:56:07;2.35;;;1.80;;
41293;SDS011;27037;52.010;4.446;2024-03-02T23:58:34;1.77;;;1.55;;
